createdAt,value
2023-02-05T00:00:29.490Z,17.13
2023-02-05T00:02:57.297Z,16.17
2023-02-05T00:05:25.131Z,18.10
2023-02-05T00:07:54.307Z,17.92
2023-02-05T00:10:22.135Z,17.05
2023-02-05T00:12:52.384Z,16.15
2023-02-05T00:15:20.196Z,16.92
2023-02-05T00:17:47.964Z,15.45
2023-02-05T00:20:15.669Z,17.27
2023-02-05T00:22:43.403Z,18.08
2023-02-05T00:25:12.556Z,18.27
2023-02-05T00:27:41.150Z,16.15
2023-02-05T00:30:10.515Z,15.63
2023-02-05T00:32:38.264Z,19.13
2023-02-05T00:35:06.636Z,18.30
2023-02-05T00:37:34.350Z,19.05
2023-02-05T00:40:02.065Z,19.70
2023-02-05T00:42:31.293Z,18.25
2023-02-05T00:44:59.036Z,16.40
2023-02-05T00:47:26.864Z,16.70
2023-02-05T00:49:54.582Z,17.45
2023-02-05T00:52:22.330Z,17.17
2023-02-05T00:54:50.045Z,17.10
2023-02-05T00:57:17.960Z,18.35
2023-02-05T00:59:47.127Z,16.95
2023-02-05T01:02:14.858Z,19.40
2023-02-05T01:04:42.581Z,18.50
2023-02-05T01:07:10.366Z,19.73
2023-02-05T01:09:38.149Z,17.92
2023-02-05T01:12:06.478Z,21.00
2023-02-05T01:14:34.271Z,18.55
2023-02-05T01:17:03.561Z,17.63
2023-02-05T01:19:31.242Z,19.20
2023-02-05T01:21:58.942Z,19.15
2023-02-05T01:24:26.718Z,17.67
2023-02-05T01:26:56.100Z,18.25
2023-02-05T01:29:23.915Z,17.65
2023-02-05T01:31:52.084Z,16.98
2023-02-05T01:34:21.343Z,17.98
2023-02-05T01:36:49.152Z,19.40
2023-02-05T01:39:16.978Z,16.30
2023-02-05T01:41:45.780Z,18.42
2023-02-05T01:44:18.386Z,17.48
2023-02-05T01:46:47.689Z,17.27
2023-02-05T01:49:18.992Z,16.30
2023-02-05T01:51:49.700Z,16.70
2023-02-05T01:54:19.046Z,17.10
2023-02-05T01:56:53.952Z,17.15
2023-02-05T01:59:24.673Z,17.92
2023-02-05T02:01:52.858Z,19.77
2023-02-05T02:04:33.451Z,17.05
2023-02-05T02:07:03.937Z,16.33
2023-02-05T02:09:31.751Z,15.25
2023-02-05T02:11:59.753Z,14.90
2023-02-05T02:14:30.085Z,17.40
2023-02-05T02:16:59.896Z,14.82
2023-02-05T02:19:33.312Z,14.30
2023-02-05T02:22:27.550Z,14.57
2023-02-05T02:25:22.346Z,15.73
2023-02-05T02:27:58.079Z,16.60
2023-02-05T02:30:29.116Z,15.27
2023-02-05T02:33:07.345Z,16.98
2023-02-05T02:35:44.497Z,17.50
2023-02-05T02:38:19.954Z,16.85
2023-02-05T02:40:52.844Z,16.10
2023-02-05T02:43:26.996Z,16.20
2023-02-05T02:46:00.990Z,17.42
2023-02-05T02:48:31.967Z,16.92
2023-02-05T02:51:01.236Z,17.52
2023-02-05T02:53:34.311Z,17.77
2023-02-05T02:56:04.750Z,18.13
2023-02-05T02:58:40.379Z,17.50
2023-02-05T03:01:10.948Z,18.83
2023-02-05T03:03:43.525Z,18.75
2023-02-05T03:06:14.061Z,18.92
2023-02-05T03:08:50.806Z,16.33
2023-02-05T03:11:18.758Z,17.42
2023-02-05T03:13:49.135Z,19.60
2023-02-05T03:16:19.073Z,19.48
2023-02-05T03:18:47.599Z,18.10
2023-02-05T03:21:21.094Z,20.85
2023-02-05T03:23:49.845Z,22.00
2023-02-05T03:26:25.003Z,17.50
2023-02-05T03:28:54.652Z,17.75
2023-02-05T03:31:26.531Z,20.08
2023-02-05T03:34:06.656Z,22.30
2023-02-05T03:36:44.039Z,22.55
2023-02-05T03:39:26.929Z,21.92
2023-02-05T03:42:04.266Z,20.27
2023-02-05T03:44:55.246Z,24.67
2023-02-05T03:47:34.152Z,25.45
2023-02-05T03:50:13.206Z,24.73
2023-02-05T03:52:47.221Z,24.48
2023-02-05T03:55:19.764Z,26.42
2023-02-05T04:00:21.436Z,27.90
2023-02-05T04:02:49.177Z,32.25
2023-02-05T04:05:16.920Z,27.52
2023-02-05T04:07:44.760Z,35.05
2023-02-05T04:10:12.540Z,30.30
2023-02-05T04:12:40.243Z,33.38
2023-02-05T04:15:09.080Z,32.25
2023-02-05T04:17:38.308Z,35.30
2023-02-05T04:20:07.035Z,31.20
2023-02-05T04:22:35.069Z,33.40
2023-02-05T04:25:02.808Z,32.97
2023-02-05T04:27:30.578Z,37.42
2023-02-05T04:29:58.351Z,34.08
2023-02-05T04:32:26.136Z,35.00
2023-02-05T04:34:55.235Z,31.27
2023-02-05T04:37:22.972Z,33.55
2023-02-05T04:39:50.868Z,33.42
2023-02-05T04:42:18.731Z,34.67
2023-02-05T04:44:46.575Z,36.03
2023-02-05T04:47:14.510Z,34.38
2023-02-05T04:49:42.248Z,33.63
2023-02-05T04:52:11.449Z,36.38
2023-02-05T04:54:39.473Z,35.72
2023-02-05T04:57:07.409Z,35.13
2023-02-05T04:59:35.300Z,37.17
2023-02-05T05:02:03.295Z,39.08
2023-02-05T05:04:31.166Z,45.08
2023-02-05T05:06:58.955Z,41.78
2023-02-05T05:09:28.066Z,41.58
2023-02-05T05:11:57.223Z,40.80
2023-02-05T05:14:24.929Z,38.97
2023-02-05T05:16:52.686Z,38.83
2023-02-05T05:19:20.488Z,41.67
2023-02-05T05:21:48.271Z,39.15
2023-02-05T05:24:15.949Z,40.80
2023-02-05T05:26:46.319Z,38.55
2023-02-05T05:29:15.256Z,40.13
2023-02-05T05:31:43.429Z,41.95
2023-02-05T05:34:11.196Z,39.90
2023-02-05T05:36:40.028Z,38.65
2023-02-05T05:39:21.749Z,40.38
2023-02-05T05:42:08.293Z,42.30
2023-02-05T05:44:36.085Z,38.58
2023-02-05T05:47:03.811Z,38.58
2023-02-05T05:49:31.649Z,42.72
2023-02-05T05:51:59.468Z,39.83
2023-02-05T05:54:27.194Z,40.03
2023-02-05T05:56:56.320Z,41.88
2023-02-05T05:59:24.072Z,39.92
2023-02-05T06:01:51.828Z,40.42
2023-02-05T06:04:19.655Z,40.88
2023-02-05T06:06:47.443Z,42.20
2023-02-05T06:09:15.308Z,41.63
2023-02-05T06:11:43.078Z,39.20
2023-02-05T06:14:12.331Z,36.90
2023-02-05T06:16:40.973Z,40.22
2023-02-05T06:19:09.132Z,38.83
2023-02-05T06:21:36.968Z,40.67
2023-02-05T06:24:05.115Z,37.38
2023-02-05T06:26:32.919Z,38.17
2023-02-05T06:29:03.303Z,39.30
2023-02-05T06:31:33.068Z,39.47
2023-02-05T06:34:02.273Z,37.45
2023-02-05T06:36:30.095Z,38.47
2023-02-05T06:38:57.856Z,37.17
2023-02-05T06:41:25.694Z,38.80
2023-02-05T06:43:53.602Z,36.92
2023-02-05T06:46:21.397Z,35.90
2023-02-05T06:48:50.704Z,36.88
2023-02-05T06:51:18.551Z,34.90
2023-02-05T06:53:46.471Z,36.38
2023-02-05T06:56:14.442Z,36.28
2023-02-05T06:58:42.216Z,32.17
2023-02-05T07:01:09.951Z,31.35
2023-02-05T07:03:37.798Z,36.10
2023-02-05T07:06:10.061Z,35.22
2023-02-05T07:08:40.267Z,32.47
2023-02-05T07:11:08.020Z,32.22
2023-02-05T07:13:35.856Z,29.98
2023-02-05T07:16:05.278Z,30.73
2023-02-05T07:18:33.854Z,33.17
2023-02-05T07:21:05.388Z,29.65
2023-02-05T07:23:34.996Z,28.55
2023-02-05T07:26:07.728Z,28.20
2023-02-05T07:28:35.676Z,23.50
2023-02-05T07:31:07.809Z,23.55
2023-02-05T07:33:36.805Z,22.92
2023-02-05T07:36:05.535Z,22.80
2023-02-05T07:38:35.621Z,22.48
2023-02-05T07:41:04.838Z,23.20
2023-02-05T07:43:32.725Z,21.23
2023-02-05T07:46:02.954Z,19.38
2023-02-05T07:48:31.244Z,19.42
2023-02-05T07:50:59.071Z,19.02
2023-02-05T07:53:27.512Z,18.52
2023-02-05T07:55:56.726Z,19.50
2023-02-05T07:58:24.601Z,17.90
2023-02-05T08:00:52.358Z,17.73
2023-02-05T08:03:21.028Z,15.98
2023-02-05T08:05:50.187Z,14.88
2023-02-05T08:08:17.965Z,14.38
2023-02-05T08:10:45.745Z,12.05
2023-02-05T08:13:14.961Z,13.23
2023-02-05T08:15:46.333Z,13.30
2023-02-05T08:18:14.177Z,7.97
2023-02-05T08:20:42.006Z,7.18
2023-02-05T08:23:09.762Z,6.45
2023-02-05T08:25:37.447Z,4.60
2023-02-05T08:28:05.805Z,3.28
2023-02-05T08:30:34.936Z,2.63
2023-02-05T08:33:02.687Z,2.35
2023-02-05T08:35:30.389Z,1.98
2023-02-05T08:37:58.954Z,1.40
2023-02-05T08:40:26.727Z,1.80
2023-02-05T08:42:57.177Z,1.58
2023-02-05T08:45:24.985Z,1.70
2023-02-05T08:47:54.259Z,1.40
2023-02-05T08:50:23.149Z,1.50
2023-02-05T08:52:50.871Z,1.40
2023-02-05T08:55:19.242Z,1.90
2023-02-05T08:57:47.168Z,1.20
2023-02-05T09:00:16.246Z,1.33
2023-02-05T09:02:44.746Z,1.10
2023-02-05T09:05:13.949Z,1.08
2023-02-05T09:07:42.825Z,1.27
2023-02-05T09:10:11.840Z,1.25
2023-02-05T09:12:39.616Z,1.48
2023-02-05T09:15:08.649Z,1.40
2023-02-05T09:17:36.425Z,1.42
2023-02-05T09:20:04.715Z,1.80
2023-02-05T09:22:33.928Z,2.10
2023-02-05T09:25:01.699Z,2.03
2023-02-05T09:27:30.493Z,2.33
2023-02-05T09:29:58.320Z,2.10
2023-02-05T09:32:26.204Z,2.10
2023-02-05T09:34:54.069Z,2.03
2023-02-05T09:37:22.560Z,1.95
2023-02-05T09:42:49.720Z,2.13
2023-02-05T09:45:38.430Z,2.10
2023-02-05T09:48:25.135Z,2.20
2023-02-05T09:50:54.141Z,2.53
2023-02-05T09:53:23.629Z,2.20
2023-02-05T09:55:53.052Z,2.53
2023-02-05T09:58:27.098Z,2.50
2023-02-05T10:01:00.634Z,2.70
2023-02-05T10:03:33.357Z,2.55
2023-02-05T10:06:17.731Z,2.70
2023-02-05T10:08:53.788Z,2.50
2023-02-05T10:11:32.679Z,2.10
2023-02-05T10:14:13.510Z,2.22
2023-02-05T10:16:59.654Z,2.42
2023-02-05T10:19:43.939Z,2.03
2023-02-05T10:22:19.699Z,2.35
2023-02-05T10:25:03.381Z,2.20
2023-02-05T10:27:45.152Z,2.35
2023-02-05T10:30:21.670Z,2.57
2023-02-05T10:32:57.589Z,2.30
2023-02-05T10:35:32.664Z,2.33
2023-02-05T10:38:00.892Z,2.30
2023-02-05T10:40:31.630Z,2.58
2023-02-05T10:43:06.469Z,2.58
2023-02-05T10:45:36.926Z,2.20
2023-02-05T10:48:28.277Z,2.33
2023-02-05T10:51:01.090Z,2.72
2023-02-05T10:53:32.283Z,2.80
2023-02-05T10:56:02.891Z,2.67
2023-02-05T10:58:47.957Z,2.72
2023-02-05T11:01:18.282Z,2.58
2023-02-05T11:04:00.315Z,2.15
2023-02-05T11:06:33.081Z,2.40
2023-02-05T11:09:02.504Z,2.60
2023-02-05T11:11:33.205Z,2.65
2023-02-05T11:14:05.686Z,2.72
2023-02-05T11:19:19.403Z,2.80
2023-02-05T11:21:50.409Z,2.67
2023-02-05T11:24:28.132Z,2.88
2023-02-05T11:27:30.190Z,2.55
2023-02-05T11:30:28.631Z,3.10
2023-02-05T11:33:25.450Z,2.85
2023-02-05T11:35:56.960Z,2.30
2023-02-05T11:38:37.087Z,2.58
2023-02-05T11:43:06.533Z,2.33
2023-02-05T11:44:30.112Z,2.20
2023-02-05T11:47:10.158Z,2.10
2023-02-05T11:49:42.517Z,2.58
2023-02-05T11:52:12.396Z,2.08
2023-02-05T11:54:46.089Z,2.53
2023-02-05T11:57:32.973Z,2.45
2023-02-05T12:00:05.595Z,2.00
2023-02-05T12:02:37.873Z,2.00
2023-02-05T12:05:18.645Z,2.25
2023-02-05T12:07:54.479Z,2.65
2023-02-05T12:10:33.755Z,1.92
2023-02-05T12:13:08.718Z,2.30
2023-02-05T12:15:43.452Z,2.10
2023-02-05T12:18:23.782Z,2.05
2023-02-05T12:21:06.348Z,2.10
2023-02-05T12:23:57.051Z,2.10
2023-02-05T12:26:33.434Z,1.67
2023-02-05T12:29:15.235Z,2.08
2023-02-05T12:31:58.020Z,1.77
2023-02-05T12:34:35.312Z,1.83
2023-02-05T12:37:17.825Z,1.75
2023-02-05T12:39:48.040Z,1.67
2023-02-05T12:42:33.357Z,1.90
2023-02-05T12:45:25.880Z,2.08
2023-02-05T12:48:06.865Z,1.40
2023-02-05T12:50:54.014Z,2.10
2023-02-05T12:53:39.227Z,1.80
2023-02-05T12:56:29.826Z,2.28
2023-02-05T12:59:02.864Z,2.58
2023-02-05T13:01:39.350Z,2.00
2023-02-05T13:04:08.435Z,1.90
2023-02-05T13:06:43.296Z,2.30
2023-02-05T13:09:20.434Z,2.38
2023-02-05T13:11:56.214Z,2.10
2023-02-05T13:14:28.738Z,2.10
2023-02-05T13:19:32.016Z,2.40
2023-02-05T13:22:22.954Z,1.92
2023-02-05T13:25:11.359Z,2.35
2023-02-05T13:28:00.586Z,2.55
2023-02-05T13:30:36.092Z,2.13
2023-02-05T13:33:07.313Z,2.05
2023-02-05T13:35:42.669Z,2.33
2023-02-05T13:38:35.605Z,2.40
2023-02-05T13:44:27.867Z,2.42
2023-02-05T13:47:19.863Z,2.38
2023-02-05T13:50:14.889Z,2.37
2023-02-05T13:53:01.917Z,2.03
2023-02-05T13:55:59.989Z,2.63
2023-02-05T13:58:30.805Z,2.22
2023-02-05T14:01:02.448Z,2.28
2023-02-05T14:03:38.220Z,2.17
2023-02-05T14:06:23.717Z,2.10
2023-02-05T14:08:57.527Z,2.30
2023-02-05T14:11:27.048Z,2.50
2023-02-05T14:14:22.725Z,2.50
2023-02-05T14:16:51.942Z,2.15
2023-02-05T14:19:25.552Z,2.92
2023-02-05T14:24:47.210Z,2.40
2023-02-05T14:27:48.847Z,2.90
2023-02-05T14:30:51.003Z,2.55
2023-02-05T14:33:35.294Z,2.60
2023-02-05T14:36:35.849Z,2.67
2023-02-05T14:39:07.666Z,3.35
2023-02-05T14:41:51.652Z,2.53
2023-02-05T14:44:25.476Z,3.20
2023-02-05T14:47:00.779Z,3.35
2023-02-05T14:49:31.772Z,2.63
2023-02-05T14:52:02.921Z,2.88
2023-02-05T14:54:34.097Z,3.30
2023-02-05T14:57:19.275Z,3.30
2023-02-05T14:59:54.649Z,3.45
2023-02-05T15:02:51.871Z,3.58
2023-02-05T15:05:25.755Z,3.17
2023-02-05T15:08:02.291Z,3.60
2023-02-05T15:10:37.705Z,3.30
2023-02-05T15:13:12.058Z,3.65
2023-02-05T15:15:41.492Z,3.60
2023-02-05T15:18:17.971Z,3.45
2023-02-05T15:20:49.230Z,3.22
2023-02-05T15:23:27.153Z,3.90
2023-02-05T15:25:59.059Z,3.75
2023-02-05T15:28:32.418Z,3.80
2023-02-05T15:31:11.149Z,4.63
2023-02-05T15:33:51.034Z,4.03
2023-02-05T15:36:29.294Z,4.60
2023-02-05T15:39:08.110Z,3.85
2023-02-05T15:41:37.103Z,3.78
2023-02-05T15:44:05.629Z,3.45
2023-02-05T15:46:35.007Z,3.58
2023-02-05T15:49:09.800Z,4.25
2023-02-05T15:51:38.920Z,4.05
2023-02-05T15:54:07.620Z,4.00
2023-02-05T15:56:37.994Z,4.18
2023-02-05T15:59:12.986Z,4.10
2023-02-05T16:01:46.878Z,4.00
2023-02-05T16:04:19.237Z,3.80
2023-02-05T16:06:47.411Z,3.70
2023-02-05T16:09:20.180Z,3.42
2023-02-05T16:11:49.203Z,4.10
2023-02-05T16:14:19.284Z,3.88
2023-02-05T16:16:58.681Z,4.80
2023-02-05T16:19:30.472Z,3.97
2023-02-05T16:22:02.645Z,4.47
2023-02-05T16:24:35.203Z,4.13
2023-02-05T16:27:10.800Z,4.20
2023-02-05T16:29:47.885Z,4.43
2023-02-05T16:32:26.104Z,3.78
2023-02-05T16:34:53.920Z,3.95
2023-02-05T16:37:27.007Z,4.20
2023-02-05T16:39:56.720Z,4.13
2023-02-05T16:42:35.748Z,3.38
2023-02-05T16:45:24.015Z,4.47
2023-02-05T16:48:26.294Z,7.78
2023-02-05T16:50:56.695Z,3.67
2023-02-05T16:53:26.783Z,3.97
2023-02-05T16:55:59.204Z,3.85
2023-02-05T16:58:30.975Z,4.40
2023-02-05T17:01:00.898Z,4.05
2023-02-05T17:03:35.477Z,4.40
2023-02-05T17:06:05.389Z,4.07
2023-02-05T17:08:36.622Z,5.10
2023-02-05T17:11:06.938Z,4.80
2023-02-05T17:13:39.684Z,5.00
2023-02-05T17:16:29.283Z,4.72
2023-02-05T17:19:01.046Z,4.80
2023-02-05T17:21:31.933Z,4.47
2023-02-05T17:24:02.814Z,4.38
2023-02-05T17:26:33.954Z,4.10
2023-02-05T17:29:05.442Z,4.45
2023-02-05T17:31:36.897Z,4.57
2023-02-05T17:34:06.475Z,4.18
2023-02-05T17:36:34.418Z,4.22
2023-02-05T17:39:02.209Z,4.47
2023-02-05T17:41:53.402Z,4.43
2023-02-05T17:44:21.207Z,4.60
2023-02-05T17:46:49.038Z,3.83
2023-02-05T17:49:18.249Z,4.20
2023-02-05T17:51:46.072Z,4.35
2023-02-05T17:54:15.680Z,4.57
2023-02-05T17:56:44.649Z,4.80
2023-02-05T17:59:13.332Z,4.28
2023-02-05T18:01:41.107Z,4.35
2023-02-05T18:04:09.082Z,5.63
2023-02-05T18:06:39.442Z,4.57
2023-02-05T18:09:07.829Z,5.32
2023-02-05T18:11:36.054Z,4.95
2023-02-05T18:14:03.850Z,4.40
2023-02-05T18:16:32.466Z,5.32
2023-02-05T18:19:00.302Z,5.15
2023-02-05T18:21:28.488Z,5.40
2023-02-05T18:23:57.677Z,5.18
2023-02-05T18:26:27.103Z,5.03
2023-02-05T18:28:55.041Z,5.70
2023-02-05T18:31:23.382Z,5.20
2023-02-05T18:33:53.109Z,5.55
2023-02-05T18:36:20.864Z,4.93
2023-02-05T18:38:48.566Z,5.07
2023-02-05T18:41:21.680Z,5.90
2023-02-05T18:43:49.533Z,5.47
2023-02-05T18:46:21.000Z,4.93
2023-02-05T18:48:50.094Z,5.65
2023-02-05T18:51:20.065Z,5.35
2023-02-05T18:53:48.064Z,5.72
2023-02-05T18:56:19.752Z,5.85
2023-02-05T18:58:53.416Z,5.68
2023-02-05T19:01:21.555Z,6.72
2023-02-05T19:03:49.371Z,6.47
2023-02-05T19:06:19.396Z,6.18
2023-02-05T19:08:47.275Z,6.38
2023-02-05T19:11:20.237Z,6.00
2023-02-05T19:13:49.354Z,6.40
2023-02-05T19:16:18.060Z,6.93
2023-02-05T19:18:47.323Z,6.15
2023-02-05T19:21:18.312Z,6.70
2023-02-05T19:23:47.553Z,6.82
2023-02-05T19:26:19.088Z,6.53
2023-02-05T19:28:56.010Z,7.28
2023-02-05T19:31:27.218Z,6.82
2023-02-05T19:33:56.311Z,6.30
2023-02-05T19:36:27.109Z,6.40
2023-02-05T19:38:55.178Z,6.28
2023-02-05T19:41:27.313Z,6.75
2023-02-05T19:43:57.289Z,6.15
2023-02-05T19:46:27.953Z,6.88
2023-02-05T19:48:57.206Z,5.97
2023-02-05T19:51:25.232Z,6.57
2023-02-05T19:53:53.165Z,5.93
2023-02-05T19:56:23.058Z,6.63
2023-02-05T19:58:54.309Z,5.90
2023-02-05T20:01:26.269Z,6.65
2023-02-05T20:03:55.860Z,6.47
2023-02-05T20:06:26.409Z,6.25
2023-02-05T20:08:54.457Z,6.10
2023-02-05T20:11:22.775Z,7.05
2023-02-05T20:13:53.744Z,6.60
2023-02-05T20:16:23.687Z,6.47
2023-02-05T20:18:54.600Z,7.10
2023-02-05T20:21:22.858Z,6.75
2023-02-05T20:23:51.253Z,7.55
2023-02-05T20:26:21.920Z,6.63
2023-02-05T20:29:11.382Z,6.65
2023-02-05T20:31:43.104Z,6.78
2023-02-05T20:34:18.034Z,6.33
2023-02-05T20:36:47.592Z,6.40
2023-02-05T20:39:17.212Z,7.45
2023-02-05T20:41:45.233Z,6.30
2023-02-05T20:44:14.953Z,6.20
2023-02-05T20:46:43.106Z,6.75
2023-02-05T20:49:11.242Z,6.88
2023-02-05T20:51:39.710Z,5.95
2023-02-05T20:54:08.005Z,6.22
2023-02-05T20:56:36.361Z,6.40
2023-02-05T20:59:06.262Z,6.72
2023-02-05T21:01:40.690Z,8.40
2023-02-05T21:04:11.397Z,7.28
2023-02-05T21:06:41.125Z,6.28
2023-02-05T21:09:10.521Z,6.60
2023-02-05T21:11:39.461Z,6.50
2023-02-05T21:14:08.916Z,7.53
2023-02-05T21:16:38.831Z,6.35
2023-02-05T21:19:08.762Z,6.75
2023-02-05T21:21:39.289Z,7.65
2023-02-05T21:24:09.304Z,6.30
2023-02-05T21:26:39.517Z,6.68
2023-02-05T21:29:10.211Z,6.72
2023-02-05T21:31:40.781Z,6.60
2023-02-05T21:34:10.604Z,6.75
2023-02-05T21:36:38.392Z,6.18
2023-02-05T21:39:06.306Z,6.28
2023-02-05T21:41:34.084Z,6.38
2023-02-05T21:44:02.254Z,6.65
2023-02-05T21:46:31.170Z,7.40
2023-02-05T21:49:03.624Z,6.85
2023-02-05T21:54:01.473Z,7.82
2023-02-05T21:56:31.264Z,8.10
2023-02-05T21:58:59.568Z,7.53
2023-02-05T22:01:28.834Z,7.78
2023-02-05T22:03:58.482Z,7.60
2023-02-05T22:06:30.268Z,6.25
2023-02-05T22:08:59.144Z,5.88
2023-02-05T22:11:27.531Z,8.93
2023-02-05T22:13:57.213Z,8.77
2023-02-05T22:16:27.688Z,6.65
2023-02-05T22:18:56.118Z,8.40
2023-02-05T22:21:26.821Z,8.23
2023-02-05T22:23:58.107Z,7.80
2023-02-05T22:26:29.139Z,7.32
2023-02-05T22:28:59.062Z,6.72
2023-02-05T22:31:28.327Z,7.30
2023-02-05T22:33:56.937Z,7.03
2023-02-05T22:36:26.863Z,6.93
2023-02-05T22:38:56.312Z,8.10
2023-02-05T22:41:25.861Z,7.57
2023-02-05T22:43:56.887Z,9.13
2023-02-05T22:46:26.247Z,7.55
2023-02-05T22:48:55.127Z,8.07
2023-02-05T22:51:24.511Z,8.07
2023-02-05T22:53:53.789Z,6.97
2023-02-05T22:56:23.307Z,7.53
2023-02-05T22:58:52.771Z,7.45
2023-02-05T23:01:22.883Z,7.70
2023-02-05T23:03:52.029Z,9.90
2023-02-05T23:06:21.685Z,9.18
2023-02-05T23:08:51.232Z,13.45
2023-02-05T23:11:19.638Z,10.05
2023-02-05T23:13:49.320Z,10.57
2023-02-05T23:16:19.165Z,10.02
2023-02-05T23:18:48.198Z,7.88
2023-02-05T23:21:18.222Z,8.70
2023-02-05T23:23:46.442Z,7.40
2023-02-05T23:26:17.327Z,6.82
2023-02-05T23:28:45.846Z,7.45
2023-02-05T23:31:15.775Z,7.55
2023-02-05T23:33:44.008Z,6.93
2023-02-05T23:36:12.773Z,6.85
2023-02-05T23:38:41.309Z,6.95
2023-02-05T23:41:09.657Z,7.60
2023-02-05T23:43:38.179Z,7.40
2023-02-05T23:46:07.154Z,7.40
2023-02-05T23:48:36.454Z,7.18
2023-02-05T23:51:04.342Z,7.35
2023-02-05T23:53:32.084Z,6.68
2023-02-05T23:55:59.789Z,7.20
2023-02-05T23:58:27.983Z,7.10
